createdAt,value
2024-01-09T00:00:30.269Z,31.30
2024-01-09T00:05:56.804Z,28.40
2024-01-09T00:11:04.561Z,32.60
2024-01-09T00:16:08.721Z,40.90
2024-01-09T00:21:13.193Z,30.00
2024-01-09T00:26:21.303Z,29.20
2024-01-09T00:31:29.534Z,25.40
2024-01-09T00:36:34.389Z,26.70
2024-01-09T00:41:49.651Z,24.00
2024-01-09T00:46:55.617Z,26.60
2024-01-09T00:52:03.895Z,30.20
2024-01-09T00:57:08.088Z,29.70
2024-01-09T01:02:19.831Z,22.50
2024-01-09T01:07:25.673Z,28.70
2024-01-09T01:12:34.401Z,30.30
2024-01-09T01:18:13.200Z,26.80
2024-01-09T01:23:27.099Z,23.10
2024-01-09T01:28:38.325Z,29.40
2024-01-09T01:33:56.468Z,33.30
2024-01-09T01:39:03.581Z,24.40
2024-01-09T01:44:29.880Z,33.70
2024-01-09T01:49:44.132Z,30.90
2024-01-09T01:55:28.888Z,33.20
2024-01-09T02:00:32.907Z,31.40
2024-01-09T02:05:37.516Z,29.20
2024-01-09T02:10:44.471Z,31.30
2024-01-09T02:15:49.150Z,33.80
2024-01-09T02:20:56.446Z,33.70
2024-01-09T02:26:08.808Z,30.70
2024-01-09T02:31:15.203Z,31.80
2024-01-09T02:36:35.361Z,30.60
2024-01-09T02:41:45.174Z,28.80
2024-01-09T02:46:49.214Z,27.70
2024-01-09T02:51:54.366Z,25.40
2024-01-09T02:57:01.782Z,30.90
2024-01-09T03:02:08.562Z,25.60
2024-01-09T03:07:17.191Z,26.30
2024-01-09T03:12:24.385Z,25.60
2024-01-09T03:17:28.351Z,26.90
2024-01-09T03:22:40.239Z,22.90
2024-01-09T03:32:50.825Z,23.20
2024-01-09T03:37:58.117Z,27.40
2024-01-09T03:43:07.678Z,25.40
2024-01-09T03:48:16.404Z,24.60
2024-01-09T03:53:21.528Z,25.40
2024-01-09T03:58:27.445Z,21.70
2024-01-09T04:03:34.293Z,24.60
2024-01-09T04:08:40.032Z,24.00
2024-01-09T04:13:54.874Z,22.90
2024-01-09T04:19:07.529Z,26.40
2024-01-09T04:24:15.267Z,21.40
2024-01-09T04:29:19.304Z,29.50
2024-01-09T04:34:27.762Z,22.70
2024-01-09T04:39:41.705Z,25.70
2024-01-09T04:44:46.545Z,38.50
2024-01-09T04:49:53.977Z,29.90
2024-01-09T04:55:02.307Z,42.20
2024-01-09T05:00:27.209Z,36.20
2024-01-09T05:05:34.734Z,32.40
2024-01-09T05:10:41.940Z,28.20
2024-01-09T05:15:49.508Z,24.90
2024-01-09T05:20:56.838Z,28.10
2024-01-09T05:26:05.561Z,34.00
2024-01-09T05:31:11.486Z,24.70
2024-01-09T05:36:24.125Z,22.90
2024-01-09T05:41:31.322Z,28.40
2024-01-09T05:46:40.776Z,25.00
2024-01-09T05:52:04.473Z,23.80
2024-01-09T05:57:26.463Z,28.80
2024-01-09T06:02:37.305Z,28.20
2024-01-09T06:07:43.100Z,32.80
2024-01-09T06:13:48.912Z,27.10
2024-01-09T06:20:20.649Z,27.30
2024-01-09T06:26:34.084Z,27.90
2024-01-09T06:32:40.487Z,24.60
2024-01-09T07:03:40.555Z,29.00
2024-01-09T07:29:36.369Z,33.30
2024-01-09T07:35:50.307Z,49.70
2024-01-09T07:41:47.269Z,39.10
2024-01-09T07:54:55.864Z,37.80
2024-01-09T08:00:04.788Z,34.60
2024-01-09T08:05:20.237Z,33.00
2024-01-09T08:10:47.576Z,30.60
2024-01-09T08:15:57.302Z,28.00
2024-01-09T09:06:50.228Z,23.70
2024-01-09T09:13:16.921Z,25.90
2024-01-09T09:45:04.656Z,24.30
2024-01-09T09:51:29.409Z,23.50
2024-01-09T09:58:11.680Z,20.70
2024-01-09T10:05:09.296Z,19.70
2024-01-09T10:17:51.947Z,20.40
2024-01-09T10:24:18.133Z,20.70
2024-01-09T10:30:40.771Z,19.70
2024-01-09T10:36:46.914Z,21.60
2024-01-09T10:43:11.582Z,19.30
2024-01-09T10:49:05.113Z,20.80
2024-01-09T10:55:18.141Z,22.00
2024-01-09T11:43:30.621Z,20.00
2024-01-09T11:56:04.165Z,20.10
2024-01-09T12:15:37.476Z,22.10
2024-01-09T12:21:51.769Z,17.70
2024-01-09T12:27:36.825Z,15.50
2024-01-09T12:32:47.509Z,16.70
2024-01-09T12:38:53.949Z,19.70
2024-01-09T13:56:06.942Z,20.40
2024-01-09T14:02:42.885Z,13.10
2024-01-09T14:40:49.268Z,19.50
2024-01-09T14:47:20.312Z,19.70
2024-01-09T15:21:50.505Z,51.80
2024-01-09T15:27:40.175Z,42.80
2024-01-09T15:32:54.884Z,32.30
2024-01-09T15:38:01.644Z,43.00
2024-01-09T15:43:17.061Z,40.50
2024-01-09T15:48:52.771Z,35.40
2024-01-09T15:54:05.841Z,29.80
2024-01-09T15:59:23.587Z,35.70
2024-01-09T16:04:50.462Z,36.80
2024-01-09T16:10:05.351Z,24.80
2024-01-09T16:15:20.735Z,26.40
2024-01-09T16:20:25.028Z,40.60
2024-01-09T16:25:36.915Z,35.70
2024-01-09T16:30:45.549Z,53.90
2024-01-09T16:36:35.766Z,50.70
2024-01-09T16:42:43.522Z,41.00
2024-01-09T16:48:32.320Z,103.50
2024-01-09T16:54:06.115Z,60.30
2024-01-09T16:59:14.059Z,54.20
2024-01-09T17:04:19.449Z,50.60
2024-01-09T17:09:29.356Z,47.70
2024-01-09T17:14:38.697Z,35.00
2024-01-09T17:20:15.433Z,26.60
2024-01-09T17:25:40.299Z,24.30
2024-01-09T17:31:15.159Z,25.90
2024-01-09T17:36:40.549Z,27.60
2024-01-09T17:41:55.025Z,29.30
2024-01-09T17:47:02.086Z,33.00
2024-01-09T17:52:11.167Z,42.00
2024-01-09T17:57:34.416Z,33.10
2024-01-09T18:02:49.718Z,40.30
2024-01-09T18:08:29.257Z,38.20
2024-01-09T18:13:59.506Z,37.70
2024-01-09T18:19:08.751Z,35.70
2024-01-09T18:24:52.611Z,40.10
2024-01-09T18:29:56.917Z,30.50
2024-01-09T18:35:01.880Z,46.10
2024-01-09T18:40:47.094Z,32.50
2024-01-09T18:45:55.290Z,32.00
2024-01-09T18:51:02.536Z,30.30
2024-01-09T18:56:07.192Z,29.50
2024-01-09T19:02:13.919Z,32.20
2024-01-09T19:08:10.862Z,29.70
2024-01-09T19:14:07.030Z,25.60
2024-01-09T19:20:23.554Z,31.30
2024-01-09T19:26:19.082Z,35.60
2024-01-09T19:32:00.624Z,33.90
2024-01-09T19:37:49.206Z,39.90
2024-01-09T19:43:52.257Z,35.20
2024-01-09T19:49:32.110Z,36.20
2024-01-09T19:55:11.020Z,36.80
2024-01-09T20:00:37.318Z,34.50
2024-01-09T20:05:41.717Z,40.60
2024-01-09T20:11:09.208Z,41.80
2024-01-09T20:16:51.266Z,11.00
2024-01-09T20:21:56.244Z,43.90
2024-01-09T20:28:04.544Z,46.90
2024-01-09T20:34:56.555Z,47.50
2024-01-09T20:40:53.170Z,50.60
2024-01-09T20:47:02.509Z,62.70
2024-01-09T20:53:22.234Z,57.20
2024-01-09T20:59:10.161Z,67.60
2024-01-09T21:22:22.030Z,122.00
2024-01-09T21:28:07.950Z,88.70
2024-01-09T21:33:46.842Z,132.90
2024-01-09T21:39:41.040Z,108.60
2024-01-09T21:44:52.993Z,99.10
2024-01-09T21:49:57.603Z,104.30
2024-01-09T21:56:19.120Z,82.80
2024-01-09T22:02:44.910Z,115.80
2024-01-09T22:08:59.352Z,98.70
2024-01-09T22:40:37.344Z,91.80
2024-01-09T22:47:13.677Z,101.90
2024-01-09T22:53:30.276Z,94.20
2024-01-09T23:20:05.650Z,66.30
2024-01-09T23:26:21.183Z,59.20
2024-01-09T23:39:01.158Z,55.10
2024-01-09T23:45:05.940Z,59.30
2024-01-09T23:51:40.335Z,63.10
